Time;durP1;ratioP1;P1;durP2;ratioP2;P2;SDS_P1;SDS_P2;PMS_P1;PMS_P2;Temp;Humidity;BMP_temperature;BMP_pressure;BME280_temperature;BME280_humidity;BME280_pressure;Samples;Min_cycle;Max_cycle;Signal;HPM_P1;HPM_P2
2021/06/16 00:01:52;;;;;;;9.63;3.20;;;23.20;61.50;;;;;;5125136;27;20418;-75
2021/06/16 00:04:19;;;;;;;11.00;3.22;;;23.20;61.10;;;;;;5124887;27;20427;-73
2021/06/16 00:06:48;;;;;;;10.38;3.25;;;23.20;61.10;;;;;;5126728;27;20906;-73
2021/06/16 00:09:15;;;;;;;9.98;3.35;;;23.20;61.20;;;;;;5123787;27;20905;-74
2021/06/16 00:11:42;;;;;;;7.55;3.00;;;23.20;61.30;;;;;;5126964;27;20791;-73
2021/06/16 00:14:10;;;;;;;7.85;3.17;;;23.20;61.30;;;;;;5126332;27;20418;-73
2021/06/16 00:16:37;;;;;;;9.55;3.47;;;23.20;61.60;;;;;;5127217;27;20418;-74
2021/06/16 00:19:04;;;;;;;10.00;3.45;;;23.20;61.80;;;;;;5127195;27;20518;-75
2021/06/16 00:21:32;;;;;;;9.67;3.40;;;23.10;61.90;;;;;;5126709;27;20427;-73
2021/06/16 00:24:01;;;;;;;10.00;4.00;;;23.10;62.30;;;;;;5126200;27;20410;-73
2021/06/16 00:26:28;;;;;;;8.88;3.42;;;23.10;62.50;;;;;;5123156;27;20423;-73
2021/06/16 00:28:54;;;;;;;11.70;3.60;;;23.10;62.80;;;;;;5125583;27;20521;-73
2021/06/16 00:31:21;;;;;;;13.13;3.70;;;23.00;63.00;;;;;;5121859;27;20434;-74
2021/06/16 00:33:51;;;;;;;13.93;3.60;;;23.00;63.30;;;;;;5125622;27;20498;-74
2021/06/16 00:36:18;;;;;;;7.03;3.30;;;23.00;63.60;;;;;;5124361;27;20414;-74
2021/06/16 00:38:45;;;;;;;11.05;3.70;;;23.00;63.90;;;;;;5126204;27;20426;-74
2021/06/16 00:41:13;;;;;;;14.48;4.07;;;23.00;64.10;;;;;;5123373;27;20917;-73
2021/06/16 00:43:40;;;;;;;8.75;3.30;;;22.90;64.20;;;;;;5122580;27;20418;-73
2021/06/16 00:46:07;;;;;;;8.80;3.55;;;22.90;64.60;;;;;;5124258;27;21139;-74
2021/06/16 00:48:34;;;;;;;8.25;3.78;;;22.90;64.70;;;;;;5126659;27;20898;-74
2021/06/16 00:51:01;;;;;;;11.23;4.20;;;22.80;65.00;;;;;;5125624;27;20422;-74
2021/06/16 00:53:28;;;;;;;11.93;4.40;;;22.90;65.20;;;;;;5124780;27;20410;-74
2021/06/16 00:55:55;;;;;;;10.00;4.00;;;22.80;65.30;;;;;;5124022;27;20475;-74
2021/06/16 00:58:23;;;;;;;11.60;4.22;;;22.80;65.30;;;;;;5124726;27;20441;-73
2021/06/16 01:00:56;;;;;;;12.93;4.07;;;22.80;65.50;;;;;;5122975;27;20425;-73
2021/06/16 01:03:27;;;;;;;13.00;4.72;;;22.80;65.70;;;;;;5125525;27;20418;-73
2021/06/16 01:06:02;;;;;;;11.85;4.60;;;22.80;66.20;;;;;;5124849;27;20418;-74
2021/06/16 01:08:33;;;;;;;11.57;4.25;;;22.70;66.70;;;;;;5124622;27;20490;-74
2021/06/16 01:11:06;;;;;;;15.10;4.47;;;22.70;66.80;;;;;;5123809;27;20460;-74
2021/06/16 01:13:41;;;;;;;12.57;4.70;;;22.70;66.80;;;;;;5122375;27;20410;-72
2021/06/16 01:16:11;;;;;;;9.48;4.40;;;22.70;66.70;;;;;;5125598;27;20418;-75
2021/06/16 01:18:45;;;;;;;14.10;4.70;;;22.70;67.00;;;;;;5125724;27;20425;-71
2021/06/16 01:21:13;;;;;;;13.70;4.43;;;22.60;67.20;;;;;;5124867;27;20423;-73
2021/06/16 01:23:50;;;;;;;10.90;4.30;;;22.60;67.30;;;;;;5125445;27;20426;-73
2021/06/16 01:26:25;;;;;;;13.43;4.32;;;22.50;67.60;;;;;;5123859;27;20422;-74
2021/06/16 01:28:56;;;;;;;14.43;4.80;;;22.50;67.90;;;;;;5123282;27;20895;-73
2021/06/16 01:31:23;;;;;;;10.13;4.20;;;22.50;67.90;;;;;;5124903;27;20425;-73
2021/06/16 01:33:52;;;;;;;17.00;4.93;;;22.50;68.10;;;;;;5124596;27;20410;-74
2021/06/16 01:36:21;;;;;;;12.75;4.68;;;22.40;68.30;;;;;;5124507;27;20414;-74
2021/06/16 01:38:48;;;;;;;11.50;4.27;;;22.40;68.40;;;;;;5124046;27;20421;-73
2021/06/16 01:41:17;;;;;;;14.30;4.95;;;22.40;68.40;;;;;;5124705;27;20436;-73
2021/06/16 01:43:48;;;;;;;12.95;4.80;;;22.40;68.60;;;;;;5124108;27;20436;-74
2021/06/16 01:46:17;;;;;;;13.97;4.83;;;22.40;68.80;;;;;;5123121;27;20430;-73
2021/06/16 01:48:47;;;;;;;17.40;4.90;;;22.30;68.70;;;;;;5126634;27;20434;-73
2021/06/16 01:51:15;;;;;;;13.80;5.22;;;22.30;68.90;;;;;;5123198;27;20477;-74
2021/06/16 01:53:42;;;;;;;13.55;4.95;;;22.30;69.50;;;;;;5126385;27;20414;-74
2021/06/16 01:56:10;;;;;;;13.32;4.80;;;22.20;69.60;;;;;;5121301;27;20432;-73
2021/06/16 01:58:38;;;;;;;11.32;4.40;;;22.20;69.70;;;;;;5124933;27;20430;-73
2021/06/16 02:01:10;;;;;;;14.93;5.00;;;22.20;69.80;;;;;;5120503;27;20466;-73
2021/06/16 02:03:37;;;;;;;13.30;5.22;;;22.20;69.70;;;;;;5124686;27;20418;-73
2021/06/16 02:06:05;;;;;;;13.35;4.97;;;22.20;69.90;;;;;;5123824;27;20426;-74
2021/06/16 02:08:33;;;;;;;15.10;5.03;;;22.20;70.10;;;;;;5124365;28;20422;-73
2021/06/16 02:11:02;;;;;;;16.23;4.90;;;22.10;70.20;;;;;;5123548;27;20430;-74
2021/06/16 02:13:35;;;;;;;16.20;4.97;;;22.10;70.10;;;;;;5124832;28;20424;-74
2021/06/16 02:16:05;;;;;;;15.80;5.13;;;22.10;70.20;;;;;;5122540;27;20410;-73
2021/06/16 02:18:37;;;;;;;13.88;4.97;;;22.10;70.30;;;;;;5123527;28;20423;-73
2021/06/16 02:21:05;;;;;;;12.63;4.90;;;22.00;70.30;;;;;;5125392;27;20421;-73
2021/06/16 02:23:32;;;;;;;14.30;4.80;;;22.00;70.50;;;;;;5127985;27;20508;-75
2021/06/16 02:25:59;;;;;;;14.45;4.70;;;22.00;70.60;;;;;;5128484;27;20418;-72
2021/06/16 02:28:26;;;;;;;13.85;4.63;;;21.90;70.70;;;;;;5128708;27;20430;-73
2021/06/16 02:30:53;;;;;;;13.48;4.53;;;21.90;70.90;;;;;;5125839;27;20437;-73
2021/06/16 02:33:20;;;;;;;14.23;4.82;;;21.90;71.00;;;;;;5127229;27;20432;-74
2021/06/16 02:35:49;;;;;;;13.60;4.97;;;21.80;71.20;;;;;;5125372;27;20433;-74
2021/06/16 02:38:22;;;;;;;13.73;4.60;;;21.90;71.40;;;;;;5127975;27;20512;-74
2021/06/16 02:40:49;;;;;;;15.20;5.03;;;21.80;71.50;;;;;;5126179;27;20481;-74
2021/06/16 02:43:17;;;;;;;13.70;4.53;;;21.80;71.50;;;;;;5125662;27;20422;-74
2021/06/16 02:45:45;;;;;;;12.63;4.55;;;21.80;71.70;;;;;;5125228;27;20434;-74
2021/06/16 02:48:13;;;;;;;16.02;4.90;;;21.80;71.90;;;;;;5129838;27;20924;-73
2021/06/16 02:50:44;;;;;;;13.25;4.88;;;21.80;71.90;;;;;;5126525;27;20422;-73
2021/06/16 02:53:16;;;;;;;14.00;4.63;;;21.70;72.00;;;;;;5124860;27;20418;-73
2021/06/16 02:55:44;;;;;;;12.38;4.82;;;21.70;72.00;;;;;;5125179;27;20457;-74
2021/06/16 02:58:13;;;;;;;15.13;4.60;;;21.70;72.10;;;;;;5127208;27;20503;-73
2021/06/16 03:00:40;;;;;;;12.68;4.43;;;21.60;72.10;;;;;;5125178;27;20937;-73
2021/06/16 03:03:08;;;;;;;13.52;4.88;;;21.60;72.20;;;;;;5124914;27;20433;-73
2021/06/16 03:05:37;;;;;;;12.63;4.80;;;21.60;72.70;;;;;;5126239;27;20419;-73
2021/06/16 03:08:06;;;;;;;14.57;4.90;;;21.60;72.80;;;;;;5127965;27;20887;-72
2021/06/16 03:10:35;;;;;;;12.55;4.80;;;21.60;73.20;;;;;;5127975;27;21000;-73
2021/06/16 03:13:04;;;;;;;11.20;4.65;;;21.60;74.30;;;;;;5126896;27;20851;-72
2021/06/16 03:15:31;;;;;;;14.43;4.45;;;21.50;73.30;;;;;;5127347;27;20410;-73
2021/06/16 03:17:59;;;;;;;12.65;4.90;;;21.50;73.50;;;;;;5121241;27;20424;-73
2021/06/16 03:20:29;;;;;;;12.00;4.55;;;21.50;73.60;;;;;;5126675;27;20956;-74
2021/06/16 03:22:57;;;;;;;13.43;4.88;;;21.50;73.80;;;;;;5125688;27;20513;-73
2021/06/16 03:25:24;;;;;;;12.02;4.93;;;21.50;74.10;;;;;;5125899;27;20422;-74
2021/06/16 03:27:53;;;;;;;10.63;4.80;;;21.50;74.60;;;;;;5126579;27;20430;-74
2021/06/16 03:30:22;;;;;;;13.90;4.90;;;21.40;74.70;;;;;;5124496;27;20910;-73
2021/06/16 03:32:51;;;;;;;11.53;4.80;;;21.40;74.90;;;;;;5125549;27;20422;-73
2021/06/16 03:35:18;;;;;;;12.77;5.20;;;21.40;74.80;;;;;;5126705;27;20459;-74
2021/06/16 03:37:45;;;;;;;14.15;5.05;;;21.40;74.80;;;;;;5128893;27;20565;-74
2021/06/16 03:40:14;;;;;;;15.70;5.30;;;21.40;74.50;;;;;;5125288;27;20851;-73
2021/06/16 03:42:43;;;;;;;14.10;5.80;;;21.30;74.10;;;;;;5122477;27;20414;-74
2021/06/16 03:45:15;;;;;;;14.85;5.10;;;21.30;74.10;;;;;;5123132;27;20955;-74
2021/06/16 03:47:45;;;;;;;10.10;4.70;;;21.30;74.30;;;;;;5125136;27;20456;-74
2021/06/16 03:50:16;;;;;;;14.20;5.20;;;21.30;74.20;;;;;;5125858;27;20763;-74
2021/06/16 03:52:44;;;;;;;13.65;4.45;;;21.30;74.30;;;;;;5128478;27;20785;-73
2021/06/16 03:55:12;;;;;;;12.70;4.50;;;21.30;74.40;;;;;;5123557;27;20406;-72
2021/06/16 03:57:40;;;;;;;12.45;4.78;;;21.20;74.40;;;;;;5128031;27;20419;-72
2021/06/16 04:00:08;;;;;;;15.67;4.97;;;21.30;74.40;;;;;;5121557;27;20949;-72
2021/06/16 04:02:38;;;;;;;14.88;4.78;;;21.30;74.30;;;;;;5126998;27;20824;-73
2021/06/16 04:05:07;;;;;;;10.95;4.72;;;21.30;74.10;;;;;;5124709;27;20422;-73
2021/06/16 04:07:36;;;;;;;15.23;4.77;;;21.30;74.00;;;;;;5125962;27;20479;-75
2021/06/16 04:10:06;;;;;;;12.70;4.60;;;21.30;73.60;;;;;;5128405;27;20422;-74
2021/06/16 04:12:33;;;;;;;13.63;4.47;;;21.30;73.40;;;;;;5127508;27;20434;-73
2021/06/16 04:15:00;;;;;;;11.95;4.60;;;21.30;73.10;;;;;;5127649;27;20415;-72
2021/06/16 04:17:26;;;;;;;12.57;4.88;;;21.30;72.90;;;;;;5125507;27;20431;-73
2021/06/16 04:19:55;;;;;;;10.63;4.40;;;21.30;72.80;;;;;;5126085;27;20424;-71
2021/06/16 04:22:22;;;;;;;10.77;4.32;;;21.30;72.60;;;;;;5124708;27;20415;-72
2021/06/16 04:24:49;;;;;;;13.55;4.38;;;21.30;72.50;;;;;;5127625;27;20512;-73
2021/06/16 04:27:17;;;;;;;11.25;4.25;;;21.30;72.30;;;;;;5125700;27;20422;-73
2021/06/16 04:29:44;;;;;;;10.85;4.18;;;21.30;71.70;;;;;;5124491;27;20422;-72
2021/06/16 04:32:11;;;;;;;12.37;4.00;;;21.30;71.80;;;;;;5127542;27;20502;-73
2021/06/16 04:34:39;;;;;;;11.13;4.20;;;21.30;71.80;;;;;;5122594;27;20415;-72
2021/06/16 04:37:09;;;;;;;14.23;4.17;;;21.30;71.60;;;;;;5125262;27;20444;-73
2021/06/16 04:39:36;;;;;;;10.80;4.30;;;21.30;71.50;;;;;;5123551;27;20909;-73
2021/06/16 04:42:04;;;;;;;16.40;4.63;;;21.30;71.30;;;;;;5125710;27;20417;-74
2021/06/16 04:44:31;;;;;;;13.93;4.60;;;21.30;71.50;;;;;;5117428;27;20422;-73
2021/06/16 04:46:58;;;;;;;12.25;4.43;;;21.30;71.40;;;;;;5124558;27;20433;-73
2021/06/16 04:49:25;;;;;;;15.30;4.40;;;21.30;71.30;;;;;;5121791;27;20433;-74
2021/06/16 04:51:53;;;;;;;15.77;4.38;;;21.30;71.20;;;;;;5122531;27;20420;-74
2021/06/16 04:54:21;;;;;;;11.65;4.28;;;21.30;71.40;;;;;;5126088;27;20418;-72
2021/06/16 04:56:48;;;;;;;12.05;4.47;;;21.30;71.40;;;;;;5121737;27;20910;-72
2021/06/16 04:59:15;;;;;;;14.93;4.68;;;21.30;71.10;;;;;;5119591;27;20526;-73
2021/06/16 05:01:42;;;;;;;11.77;4.25;;;21.30;71.50;;;;;;5120615;27;20513;-71
2021/06/16 05:04:09;;;;;;;11.45;4.45;;;21.20;71.70;;;;;;5118661;27;20467;-74
2021/06/16 05:06:36;;;;;;;12.35;4.55;;;21.20;71.90;;;;;;5119401;27;20917;-73
2021/06/16 05:09:04;;;;;;;12.82;4.72;;;21.10;72.20;;;;;;5114783;27;20775;-71
2021/06/16 05:11:32;;;;;;;14.93;5.70;;;21.10;72.50;;;;;;5126043;27;20410;-72
2021/06/16 05:13:59;;;;;;;13.33;4.60;;;21.20;72.90;;;;;;5124689;27;20430;-71
2021/06/16 05:16:26;;;;;;;10.10;4.50;;;21.20;73.10;;;;;;5126951;27;20422;-72
2021/06/16 05:18:53;;;;;;;12.07;4.67;;;21.20;73.30;;;;;;5121642;27;20422;-71
2021/06/16 05:21:19;;;;;;;15.52;5.00;;;21.30;73.90;;;;;;5125654;27;20916;-71
2021/06/16 05:23:48;;;;;;;10.70;4.93;;;21.30;73.80;;;;;;5123201;27;21008;-71
2021/06/16 05:26:16;;;;;;;12.23;4.80;;;21.40;73.70;;;;;;5123394;27;20410;-71
2021/06/16 05:28:45;;;;;;;13.82;4.97;;;21.40;74.00;;;;;;5124349;27;20418;-71
2021/06/16 05:31:12;;;;;;;11.13;5.07;;;21.40;73.90;;;;;;5123178;27;20418;-70
2021/06/16 05:33:38;;;;;;;12.67;5.40;;;21.40;73.30;;;;;;5123098;27;20423;-71
2021/06/16 05:36:07;;;;;;;12.32;4.88;;;21.40;73.10;;;;;;5115589;27;20422;-70
2021/06/16 05:38:35;;;;;;;11.98;5.10;;;21.40;72.90;;;;;;5124870;27;20450;-72
2021/06/16 05:41:02;;;;;;;12.95;4.97;;;21.40;73.50;;;;;;5127691;27;20406;-71
2021/06/16 05:43:29;;;;;;;12.45;4.97;;;21.50;73.80;;;;;;5129541;27;20413;-72
2021/06/16 05:45:57;;;;;;;15.35;5.20;;;21.50;74.00;;;;;;5128179;27;20431;-71
2021/06/16 05:48:24;;;;;;;11.07;4.90;;;21.50;74.30;;;;;;5128371;27;20413;-72
2021/06/16 05:50:51;;;;;;;14.43;4.80;;;21.40;74.50;;;;;;5128803;27;20502;-72
2021/06/16 05:53:18;;;;;;;13.52;4.18;;;21.50;73.70;;;;;;5129399;27;20402;-73
2021/06/16 05:55:45;;;;;;;11.30;3.97;;;21.50;73.30;;;;;;5128301;27;20406;-73
2021/06/16 05:58:12;;;;;;;11.93;4.00;;;21.40;72.40;;;;;;5126148;27;20419;-71
2021/06/16 06:00:38;;;;;;;13.50;3.88;;;21.50;72.00;;;;;;5127749;27;20436;-73
2021/06/16 06:03:07;;;;;;;15.63;4.20;;;21.60;71.20;;;;;;5128349;27;20406;-71
2021/06/16 06:05:34;;;;;;;11.80;3.90;;;21.60;71.20;;;;;;5127330;27;20429;-69
2021/06/16 06:08:01;;;;;;;12.48;3.90;;;21.60;71.30;;;;;;5128222;27;20414;-70
2021/06/16 06:10:28;;;;;;;10.40;3.97;;;21.70;71.80;;;;;;5128859;27;20407;-70
2021/06/16 06:12:55;;;;;;;12.85;3.70;;;21.70;72.30;;;;;;5128929;27;20414;-72
2021/06/16 06:15:22;;;;;;;14.50;3.65;;;21.80;71.70;;;;;;5128098;27;21230;-74
2021/06/16 06:17:50;;;;;;;14.48;4.10;;;21.80;71.10;;;;;;5128909;27;20428;-73
2021/06/16 06:20:19;;;;;;;10.77;3.97;;;21.90;70.80;;;;;;5127233;28;21265;-74
2021/06/16 06:22:46;;;;;;;11.57;4.20;;;21.90;70.30;;;;;;5127837;27;20408;-73
2021/06/16 06:25:13;;;;;;;12.57;4.03;;;21.90;69.60;;;;;;5128693;27;20422;-74
2021/06/16 06:27:41;;;;;;;13.87;4.00;;;21.90;69.80;;;;;;5127221;28;20394;-74
2021/06/16 06:30:09;;;;;;;14.43;4.20;;;22.00;70.10;;;;;;5127711;28;20874;-74
2021/06/16 06:32:36;;;;;;;14.55;3.95;;;22.00;69.80;;;;;;5128054;27;20413;-71
2021/06/16 06:35:04;;;;;;;11.48;3.85;;;22.00;69.60;;;;;;5127021;28;20890;-75
2021/06/16 06:37:32;;;;;;;11.65;3.50;;;22.00;69.50;;;;;;5127337;27;20855;-73
2021/06/16 06:39:59;;;;;;;12.05;3.63;;;22.10;69.50;;;;;;5126728;27;20422;-72
2021/06/16 06:42:26;;;;;;;13.23;4.00;;;22.10;69.60;;;;;;5127407;27;20914;-72
2021/06/16 06:44:53;;;;;;;15.23;3.67;;;22.20;69.50;;;;;;5127776;27;20410;-72
2021/06/16 06:47:20;;;;;;;13.85;4.07;;;22.20;69.60;;;;;;5129517;28;20410;-73
2021/06/16 06:49:47;;;;;;;12.90;3.97;;;22.20;69.00;;;;;;5127635;27;20879;-76
2021/06/16 06:52:14;;;;;;;12.23;4.15;;;22.30;69.10;;;;;;5128448;27;20502;-74
2021/06/16 06:54:42;;;;;;;14.55;3.55;;;22.30;68.90;;;;;;5127943;27;20480;-73
2021/06/16 06:57:09;;;;;;;13.30;3.42;;;22.40;68.40;;;;;;5125702;28;20410;-75
2021/06/16 06:59:36;;;;;;;12.35;4.15;;;22.40;66.90;;;;;;5127885;28;20426;-73
2021/06/16 07:02:03;;;;;;;8.70;2.97;;;22.40;66.70;;;;;;5123815;28;20775;-74
2021/06/16 07:04:30;;;;;;;10.02;3.45;;;22.50;66.20;;;;;;5125782;27;20426;-74
2021/06/16 07:06:57;;;;;;;12.57;3.17;;;22.50;66.50;;;;;;5126814;27;20426;-74
2021/06/16 07:09:24;;;;;;;11.00;2.92;;;22.60;66.40;;;;;;5130063;27;20422;-74
2021/06/16 07:11:53;;;;;;;15.45;3.30;;;22.60;65.10;;;;;;5127457;27;20418;-73
2021/06/16 07:14:20;;;;;;;13.07;3.00;;;22.70;64.40;;;;;;5120688;27;20418;-73
2021/06/16 07:16:47;;;;;;;12.87;3.00;;;22.70;63.70;;;;;;5127979;27;20421;-72
2021/06/16 07:19:14;;;;;;;10.25;2.75;;;22.80;63.60;;;;;;5124519;27;20418;-72
2021/06/16 07:21:41;;;;;;;12.25;2.80;;;22.80;64.90;;;;;;5125403;27;20420;-74
2021/06/16 07:24:10;;;;;;;13.88;2.90;;;22.90;64.60;;;;;;5128509;27;20506;-73
2021/06/16 07:26:37;;;;;;;15.05;2.65;;;22.90;64.50;;;;;;5127395;27;20503;-74
2021/06/16 07:29:05;;;;;;;11.02;2.55;;;23.00;64.00;;;;;;5127004;27;20882;-74
2021/06/16 07:31:32;;;;;;;13.25;2.50;;;23.10;64.20;;;;;;5123746;27;20422;-72
2021/06/16 07:33:59;;;;;;;7.32;2.40;;;23.10;65.00;;;;;;5126048;27;20430;-74
2021/06/16 07:36:26;;;;;;;8.48;2.60;;;23.20;64.40;;;;;;5121265;27;20425;-76
2021/06/16 07:38:53;;;;;;;8.13;2.70;;;23.20;63.80;;;;;;5127690;27;20426;-73
2021/06/16 07:41:20;;;;;;;10.18;2.80;;;23.30;63.20;;;;;;5124761;27;20425;-72
2021/06/16 07:43:47;;;;;;;11.45;2.80;;;23.30;63.30;;;;;;5124507;27;20414;-73
2021/06/16 07:46:15;;;;;;;9.57;2.80;;;23.40;63.20;;;;;;5127873;27;20902;-73
2021/06/16 07:48:42;;;;;;;10.35;2.50;;;23.40;62.70;;;;;;5125367;27;20422;-73
2021/06/16 07:51:09;;;;;;;5.93;2.30;;;23.50;63.30;;;;;;5128148;27;20417;-72
2021/06/16 07:53:35;;;;;;;9.13;2.45;;;23.50;62.30;;;;;;5124389;27;20422;-73
2021/06/16 07:56:03;;;;;;;8.45;2.60;;;23.60;61.80;;;;;;5126063;27;20414;-72
2021/06/16 07:58:29;;;;;;;7.20;2.25;;;23.60;61.40;;;;;;5125151;27;22842;-73
2021/06/16 08:00:56;;;;;;;6.68;2.45;;;23.70;61.90;;;;;;5121134;27;20419;-75
2021/06/16 08:03:25;;;;;;;8.32;2.55;;;23.70;61.50;;;;;;5125454;27;20426;-72
2021/06/16 08:05:52;;;;;;;5.63;2.38;;;23.80;61.80;;;;;;5123967;27;20991;-72
2021/06/16 08:08:18;;;;;;;7.05;2.28;;;23.80;61.70;;;;;;5123747;27;20418;-72
2021/06/16 08:10:45;;;;;;;8.20;2.40;;;23.90;61.40;;;;;;5122775;27;20422;-73
2021/06/16 08:13:12;;;;;;;7.00;2.50;;;23.90;60.60;;;;;;5121426;27;21085;-75
2021/06/16 08:15:39;;;;;;;5.25;2.03;;;24.00;61.00;;;;;;5119182;27;20413;-75
2021/06/16 08:18:06;;;;;;;5.43;2.50;;;24.10;60.80;;;;;;5119488;27;20420;-73
2021/06/16 08:20:35;;;;;;;8.82;2.70;;;24.10;60.50;;;;;;5123623;27;20418;-73
2021/06/16 08:23:02;;;;;;;7.90;2.40;;;24.20;61.00;;;;;;5121013;27;20406;-71
2021/06/16 08:25:29;;;;;;;7.15;2.30;;;24.20;60.50;;;;;;5126304;27;20445;-75
2021/06/16 08:27:56;;;;;;;7.60;2.30;;;24.20;61.10;;;;;;5123719;27;20422;-74
2021/06/16 08:30:23;;;;;;;11.97;2.53;;;24.30;61.10;;;;;;5127598;27;20439;-74
2021/06/16 08:32:50;;;;;;;5.47;2.28;;;24.40;60.10;;;;;;5122615;27;20430;-75
2021/06/16 08:35:17;;;;;;;7.57;2.35;;;24.40;59.10;;;;;;5127275;27;20776;-71
2021/06/16 08:37:46;;;;;;;7.43;2.43;;;24.50;60.00;;;;;;5126753;27;20522;-73
2021/06/16 08:40:14;;;;;;;6.20;2.50;;;24.50;59.90;;;;;;5126364;27;20402;-74
2021/06/16 08:42:41;;;;;;;7.40;2.50;;;24.50;60.00;;;;;;5123244;27;20464;-74
2021/06/16 08:45:10;;;;;;;8.52;2.53;;;24.60;60.60;;;;;;5125465;27;20957;-71
2021/06/16 08:47:37;;;;;;;9.13;2.45;;;24.70;60.10;;;;;;5123465;27;20734;-72
2021/06/16 08:50:06;;;;;;;6.93;2.37;;;24.70;60.00;;;;;;5125994;27;20866;-73
2021/06/16 08:52:33;;;;;;;8.55;2.85;;;24.80;59.80;;;;;;5124124;27;20427;-75
2021/06/16 08:55:05;;;;;;;10.77;2.87;;;24.90;59.70;;;;;;5119589;27;20487;-73
2021/06/16 08:57:32;;;;;;;9.63;2.83;;;25.00;59.80;;;;;;5122400;27;20906;-74
2021/06/16 08:59:59;;;;;;;9.13;2.70;;;25.00;59.40;;;;;;5124456;27;21374;-75
2021/06/16 09:02:26;;;;;;;11.65;2.70;;;25.10;59.40;;;;;;5125731;27;20429;-73
2021/06/16 09:04:54;;;;;;;6.70;2.67;;;25.10;59.50;;;;;;5123565;27;20921;-73
2021/06/16 09:07:22;;;;;;;11.02;3.05;;;25.20;58.70;;;;;;5124808;27;20414;-73
2021/06/16 09:10:06;;;;;;;7.00;2.70;;;25.20;58.80;;;;;;5120515;27;20430;-73
2021/06/16 09:12:36;;;;;;;9.80;3.22;;;25.20;59.50;;;;;;5123122;27;20574;-74
2021/06/16 09:15:10;;;;;;;8.48;2.78;;;25.30;58.70;;;;;;5120356;27;20423;-74
2021/06/16 09:17:36;;;;;;;7.68;3.08;;;25.30;58.90;;;;;;5126464;27;21014;-71
2021/06/16 09:20:04;;;;;;;9.70;3.10;;;25.40;58.80;;;;;;5122466;27;20448;-72
2021/06/16 09:22:32;;;;;;;9.40;2.80;;;25.50;59.00;;;;;;5124224;27;20426;-73
2021/06/16 09:25:03;;;;;;;11.98;3.47;;;25.50;60.10;;;;;;5123089;27;20985;-74
2021/06/16 09:27:43;;;;;;;7.53;3.35;;;25.50;59.20;;;;;;5125181;27;20426;-75
2021/06/16 09:30:48;;;;;;;7.75;3.20;;;25.60;58.10;;;;;;5121263;27;20498;-74
2021/06/16 09:33:18;;;;;;;10.52;3.55;;;25.70;57.90;;;;;;5121978;27;20428;-75
2021/06/16 09:35:48;;;;;;;7.53;3.25;;;25.70;58.10;;;;;;5124885;27;20965;-73
2021/06/16 09:38:24;;;;;;;9.55;3.55;;;25.80;57.70;;;;;;5124387;27;20422;-74
2021/06/16 09:40:51;;;;;;;7.97;3.25;;;25.80;57.00;;;;;;5121244;27;20509;-76
2021/06/16 09:43:22;;;;;;;9.27;3.40;;;25.90;56.90;;;;;;5123386;27;20962;-74
2021/06/16 09:45:54;;;;;;;8.90;3.75;;;25.90;58.20;;;;;;5120818;27;20422;-74
2021/06/16 09:48:24;;;;;;;9.30;3.50;;;26.00;58.60;;;;;;5125537;27;20786;-76
2021/06/16 09:50:53;;;;;;;10.52;3.40;;;26.10;58.50;;;;;;5126280;27;20429;-75
2021/06/16 09:53:20;;;;;;;7.78;3.53;;;26.20;56.60;;;;;;5126746;27;21000;-76
2021/06/16 09:55:47;;;;;;;5.80;3.25;;;26.20;56.00;;;;;;5129533;27;20866;-76
2021/06/16 09:58:17;;;;;;;11.48;3.80;;;26.20;56.40;;;;;;5128954;27;20496;-78
2021/06/16 10:00:48;;;;;;;7.65;3.00;;;26.30;55.90;;;;;;5127869;27;20471;-73
2021/06/16 10:03:17;;;;;;;8.50;3.30;;;26.40;55.90;;;;;;5127963;28;20445;-74
2021/06/16 10:06:04;;;;;;;9.48;3.72;;;26.40;56.10;;;;;;5129260;27;20747;-72
2021/06/16 10:08:32;;;;;;;6.37;3.00;;;26.50;55.40;;;;;;5127453;27;20898;-72
2021/06/16 10:11:00;;;;;;;10.18;3.50;;;26.50;55.90;;;;;;5129116;27;20402;-73
2021/06/16 10:13:27;;;;;;;8.73;3.30;;;26.60;55.90;;;;;;5128645;27;20417;-73
2021/06/16 10:15:56;;;;;;;6.95;3.30;;;26.70;56.20;;;;;;5126949;27;20450;-71
2021/06/16 10:18:25;;;;;;;8.57;3.40;;;26.80;56.10;;;;;;5127082;28;20410;-72
2021/06/16 10:20:54;;;;;;;7.13;3.30;;;26.90;55.70;;;;;;5126171;28;20427;-72
2021/06/16 10:23:21;;;;;;;6.50;3.28;;;27.00;55.10;;;;;;5128952;28;20502;-73
2021/06/16 10:25:49;;;;;;;8.98;3.20;;;27.10;54.80;;;;;;5130208;27;21198;-73
2021/06/16 10:28:19;;;;;;;5.15;2.92;;;27.10;55.30;;;;;;5127254;28;20767;-72
2021/06/16 10:30:52;;;;;;;8.73;3.20;;;27.30;56.00;;;;;;5126526;27;20470;-72
2021/06/16 10:33:35;;;;;;;5.63;3.20;;;27.30;54.30;;;;;;5127324;28;20783;-71
2021/06/16 10:36:10;;;;;;;7.82;3.20;;;27.50;54.50;;;;;;5125587;28;20825;-69
2021/06/16 10:38:37;;;;;;;5.47;3.40;;;27.50;53.40;;;;;;5128118;28;20835;-69
2021/06/16 10:41:05;;;;;;;7.68;3.38;;;27.60;52.60;;;;;;5124432;27;20794;-70
2021/06/16 10:43:33;;;;;;;6.82;3.22;;;27.60;52.30;;;;;;5131693;27;20750;-73
2021/06/16 10:46:12;;;;;;;6.28;3.40;;;27.70;52.10;;;;;;5132209;27;20424;-72
2021/06/16 10:48:49;;;;;;;7.30;3.38;;;27.70;52.60;;;;;;5129263;27;20521;-73
2021/06/16 10:51:40;;;;;;;6.50;3.25;;;27.80;52.60;;;;;;5131742;27;20413;-72
2021/06/16 10:54:19;;;;;;;6.30;2.85;;;27.90;52.50;;;;;;5126752;27;20418;-71
2021/06/16 10:56:47;;;;;;;6.68;3.05;;;27.90;52.60;;;;;;5129417;27;20934;-71
2021/06/16 10:59:14;;;;;;;7.93;3.13;;;28.00;52.30;;;;;;5127101;27;20418;-73
2021/06/16 11:01:49;;;;;;;6.60;3.38;;;28.10;51.70;;;;;;5125251;27;20419;-72
2021/06/16 11:04:31;;;;;;;7.63;3.00;;;28.20;51.70;;;;;;5125884;27;20933;-71
2021/06/16 11:06:59;;;;;;;8.02;3.40;;;28.30;51.70;;;;;;5127575;27;20468;-74
2021/06/16 11:09:50;;;;;;;8.20;3.65;;;28.40;51.30;;;;;;5127040;27;20422;-72
2021/06/16 11:12:17;;;;;;;9.13;3.17;;;28.50;50.30;;;;;;5124112;27;20426;-71
2021/06/16 11:14:47;;;;;;;7.15;3.05;;;28.50;50.40;;;;;;5125066;27;20422;-73
2021/06/16 11:17:47;;;;;;;4.00;2.70;;;28.60;51.00;;;;;;5130000;27;20429;-75
2021/06/16 11:20:22;;;;;;;6.97;3.20;;;28.70;51.10;;;;;;5125207;27;20418;-72
2021/06/16 11:22:52;;;;;;;8.77;3.00;;;28.80;49.90;;;;;;5125946;27;20511;-72
2021/06/16 11:25:34;;;;;;;4.23;2.60;;;28.80;50.50;;;;;;5129215;27;20422;-73
2021/06/16 11:28:16;;;;;;;7.50;2.40;;;28.90;50.30;;;;;;5124458;27;20419;-72
2021/06/16 11:30:47;;;;;;;5.25;2.70;;;29.00;50.40;;;;;;5128568;27;20437;-73
2021/06/16 11:33:34;;;;;;;6.63;3.20;;;29.10;49.40;;;;;;5127840;27;20962;-73
2021/06/16 11:36:06;;;;;;;4.97;2.65;;;29.10;48.50;;;;;;5125870;27;20452;-73
2021/06/16 11:38:35;;;;;;;6.28;2.97;;;29.20;49.20;;;;;;5124612;27;20455;-75
2021/06/16 11:41:05;;;;;;;8.15;3.08;;;29.30;49.20;;;;;;5124429;27;20414;-72
2021/06/16 11:43:36;;;;;;;7.00;2.55;;;29.40;48.50;;;;;;5125094;27;20779;-75
2021/06/16 11:46:04;;;;;;;8.73;2.97;;;29.50;48.90;;;;;;5126708;27;20414;-73
2021/06/16 11:48:31;;;;;;;7.18;2.95;;;29.60;49.10;;;;;;5128405;27;20894;-71
2021/06/16 11:50:58;;;;;;;7.28;2.65;;;29.70;48.70;;;;;;5126306;27;20437;-74
2021/06/16 11:53:29;;;;;;;12.20;2.90;;;29.80;48.60;;;;;;5126424;27;20449;-73
2021/06/16 11:55:57;;;;;;;6.68;3.10;;;29.90;48.90;;;;;;5121984;27;20523;-72
2021/06/16 11:58:29;;;;;;;8.23;3.00;;;30.00;46.90;;;;;;5125481;27;20427;-73
2021/06/16 12:01:09;;;;;;;6.07;2.80;;;30.10;47.50;;;;;;5123871;27;20430;-76
2021/06/16 12:03:37;;;;;;;7.50;2.60;;;30.20;46.30;;;;;;5128170;27;20418;-71
2021/06/16 12:06:06;;;;;;;8.75;2.63;;;30.30;46.90;;;;;;5126598;27;20422;-75
2021/06/16 12:08:35;;;;;;;5.87;3.27;;;30.30;46.70;;;;;;5125950;27;20422;-72
2021/06/16 12:11:15;;;;;;;5.75;2.88;;;30.40;47.00;;;;;;5126385;27;20430;-71
2021/06/16 12:14:03;;;;;;;8.70;2.90;;;30.50;46.80;;;;;;5124613;27;20438;-71
2021/06/16 12:16:33;;;;;;;5.55;2.60;;;30.60;46.90;;;;;;5126255;27;20664;-75
2021/06/16 12:19:15;;;;;;;6.72;2.50;;;30.60;46.90;;;;;;5125543;27;20430;-72
2021/06/16 12:21:54;;;;;;;6.95;2.72;;;30.70;46.30;;;;;;5122513;27;20431;-73
2021/06/16 12:24:24;;;;;;;7.53;2.92;;;30.80;46.50;;;;;;5125261;27;20414;-72
2021/06/16 12:27:05;;;;;;;7.20;3.42;;;30.90;45.80;;;;;;5126694;27;20434;-74
2021/06/16 12:29:33;;;;;;;5.50;2.88;;;31.10;44.50;;;;;;5121236;27;20428;-72
2021/06/16 12:32:02;;;;;;;6.70;3.03;;;31.20;44.90;;;;;;5123398;27;20783;-75
2021/06/16 12:34:34;;;;;;;9.13;3.00;;;31.30;45.00;;;;;;5123445;27;21028;-75
2021/06/16 12:37:11;;;;;;;5.40;2.65;;;31.40;45.30;;;;;;5126129;27;20530;-73
2021/06/16 12:39:55;;;;;;;5.05;2.70;;;31.60;44.50;;;;;;5123168;27;20792;-74
2021/06/16 12:42:22;;;;;;;6.65;3.00;;;31.80;44.20;;;;;;5124918;27;20894;-73
2021/06/16 12:44:49;;;;;;;5.50;2.90;;;31.90;43.90;;;;;;5124609;27;20422;-74
2021/06/16 12:47:19;;;;;;;7.20;3.00;;;32.10;43.50;;;;;;5127281;27;20883;-74
2021/06/16 12:49:51;;;;;;;6.97;2.90;;;32.20;43.10;;;;;;5125993;27;20469;-75
2021/06/16 12:52:29;;;;;;;7.82;3.20;;;32.40;43.20;;;;;;5128538;27;20422;-74